createdAt,value
2019-04-12T00:00:03.345Z,4.4
2019-04-12T00:15:02.897Z,4.3
2019-04-12T00:30:03.292Z,4.1
2019-04-12T00:45:05.036Z,3.9
2019-04-12T01:00:02.920Z,3.9
2019-04-12T01:15:03.202Z,4
2019-04-12T01:30:02.892Z,3.9
2019-04-12T01:45:03.095Z,3.8
2019-04-12T02:00:03.330Z,3.7
2019-04-12T02:15:02.659Z,3.7
2019-04-12T02:30:03.048Z,3.7
2019-04-12T02:45:03.387Z,3.6
2019-04-12T03:00:02.726Z,3.4
2019-04-12T03:15:03.053Z,3.4
2019-04-12T03:30:03.400Z,3.3
2019-04-12T03:45:02.605Z,3
2019-04-12T04:00:02.986Z,3.1
2019-04-12T04:15:03.369Z,2.9
2019-04-12T04:30:02.677Z,2.8
2019-04-12T04:45:03.333Z,2.8
2019-04-12T05:00:02.507Z,2.8
2019-04-12T05:15:02.802Z,2.9
2019-04-12T05:30:03.037Z,3
2019-04-12T05:45:03.300Z,3.3
2019-04-12T06:00:02.610Z,3.8
2019-04-12T06:15:02.891Z,4.1
2019-04-12T06:30:02.626Z,4.5
2019-04-12T06:45:02.911Z,4.9
2019-04-12T07:00:03.230Z,4.9
2019-04-12T07:15:02.735Z,4.9
2019-04-12T07:30:03.146Z,5.1
2019-04-12T07:45:03.460Z,5.8
2019-04-12T08:00:02.740Z,7.2
2019-04-12T08:15:12.337Z,7.6
2019-04-12T08:30:02.571Z,8.2
2019-04-12T08:45:02.885Z,8.6
2019-04-12T09:00:03.228Z,9.2
2019-04-12T09:15:02.666Z,9.9
2019-04-12T09:30:03.198Z,11
2019-04-12T09:45:02.504Z,8.8
2019-04-12T10:00:02.734Z,9.2
2019-04-12T10:15:02.928Z,9.6
2019-04-12T10:30:03.366Z,10.4
2019-04-12T10:45:02.648Z,11
2019-04-12T11:00:02.905Z,9.8
2019-04-12T11:15:03.182Z,10.7
2019-04-12T11:30:02.559Z,11.2
2019-04-12T11:45:02.884Z,12.2
2019-04-12T12:00:02.414Z,12.1
2019-04-12T12:15:02.811Z,11.1
2019-04-12T12:30:03.146Z,10.4
2019-04-12T12:45:02.562Z,10.2
2019-04-12T13:00:02.776Z,10.5
2019-04-12T13:15:03.154Z,9.9
2019-04-12T13:30:06.770Z,9.7
2019-04-12T13:45:02.713Z,9.9
2019-04-12T14:00:03.051Z,10.1
2019-04-12T14:15:02.967Z,9.9
2019-04-12T14:30:03.400Z,9.7
2019-04-12T14:45:02.934Z,9.2
2019-04-12T15:00:03.221Z,9.1
2019-04-12T15:15:02.444Z,9
2019-04-12T15:30:02.888Z,8.9
2019-04-12T15:45:03.218Z,8.6
2019-04-12T16:00:02.752Z,8.5
2019-04-12T16:15:03.045Z,8.4
2019-04-12T16:30:03.264Z,8.2
2019-04-12T16:45:02.574Z,7.9
2019-04-12T17:00:02.892Z,7.8
2019-04-12T17:15:03.209Z,7.7
2019-04-12T17:30:02.530Z,7.5
2019-04-12T17:45:04.625Z,7.4
2019-04-12T18:00:02.561Z,7.3
2019-04-12T18:15:02.900Z,7.2
2019-04-12T18:30:03.280Z,7.1
2019-04-12T18:45:02.563Z,7
2019-04-12T19:00:03.210Z,6.9
2019-04-12T19:15:02.702Z,6.8
2019-04-12T19:30:03.031Z,6.7
2019-04-12T19:45:03.265Z,6.5
2019-04-12T20:00:02.582Z,6.3
2019-04-12T20:15:03.229Z,6.1
2019-04-12T20:30:02.584Z,6.1
2019-04-12T20:45:02.826Z,6.1
2019-04-12T21:00:03.226Z,5.9
2019-04-12T21:15:02.520Z,5.7
2019-04-12T21:30:02.946Z,5.6
2019-04-12T21:45:03.229Z,5.5
2019-04-12T22:00:02.930Z,5.4
2019-04-12T22:15:03.076Z,5.2
2019-04-12T22:30:03.399Z,5.1
2019-04-12T22:45:02.704Z,5.1
2019-04-12T23:00:03.031Z,4.9
2019-04-12T23:15:03.316Z,4.9
2019-04-12T23:30:02.670Z,4.9
2019-04-12T23:45:03.018Z,4.9
